createdAt,value
2022-12-16T00:02:43.736Z,94.89
2022-12-16T00:07:01.957Z,94.66
2022-12-16T00:11:20.057Z,94.88
2022-12-16T00:15:37.929Z,94.76
2022-12-16T00:19:54.803Z,94.75
2022-12-16T00:24:12.435Z,95.43
2022-12-16T00:28:29.346Z,95.32
2022-12-16T00:32:46.420Z,94.76
2022-12-16T00:37:03.428Z,95.15
2022-12-16T00:41:20.562Z,95.15
2022-12-16T00:45:39.223Z,95.01
2022-12-16T00:49:56.388Z,95.19
2022-12-16T00:54:13.296Z,95.42
2022-12-16T00:58:30.461Z,95.24
2022-12-16T01:02:49.362Z,95.36
2022-12-16T01:07:06.468Z,95.09
2022-12-16T01:11:23.302Z,95.03
2022-12-16T01:15:40.937Z,95.04
2022-12-16T01:19:57.850Z,95.30
2022-12-16T01:24:14.911Z,95.27
2022-12-16T01:28:31.808Z,95.40
2022-12-16T01:32:48.818Z,95.26
2022-12-16T01:37:06.220Z,95.23
2022-12-16T01:41:23.647Z,95.21
2022-12-16T01:45:40.769Z,95.08
2022-12-16T01:50:10.065Z,95.22
2022-12-16T01:54:43.511Z,95.28
2022-12-16T01:59:01.909Z,95.30
2022-12-16T02:03:19.383Z,95.72
2022-12-16T02:07:36.381Z,95.28
2022-12-16T02:12:17.743Z,95.42
2022-12-16T02:17:13.566Z,95.53
2022-12-16T02:22:23.752Z,95.42
2022-12-16T02:26:58.151Z,95.32
2022-12-16T02:31:32.741Z,95.02
2022-12-16T02:36:40.776Z,95.64
2022-12-16T02:41:04.020Z,95.32
2022-12-16T02:45:27.822Z,95.36
2022-12-16T02:49:51.157Z,95.64
2022-12-16T02:54:10.175Z,95.44
2022-12-16T02:58:50.612Z,95.51
2022-12-16T03:03:19.585Z,95.55
2022-12-16T03:07:41.488Z,95.21
2022-12-16T03:12:02.702Z,95.23
2022-12-16T03:16:24.632Z,95.67
2022-12-16T03:20:57.281Z,95.86
2022-12-16T03:25:15.148Z,95.51
2022-12-16T03:29:55.257Z,95.38
2022-12-16T03:34:22.973Z,95.16
2022-12-16T03:38:41.365Z,95.92
2022-12-16T03:42:59.152Z,95.63
2022-12-16T03:47:23.152Z,95.86
2022-12-16T03:51:40.807Z,95.73
2022-12-16T03:55:58.191Z,95.71
2022-12-16T04:00:15.453Z,95.60
2022-12-16T04:04:32.523Z,95.80
2022-12-16T04:08:49.385Z,95.67
2022-12-16T04:13:26.110Z,95.58
2022-12-16T04:18:02.001Z,95.48
2022-12-16T04:22:57.380Z,95.69
2022-12-16T04:27:27.834Z,96.02
2022-12-16T04:31:44.982Z,96.11
2022-12-16T04:36:20.710Z,95.72
2022-12-16T04:40:56.346Z,95.38
2022-12-16T04:45:32.073Z,95.76
2022-12-16T04:50:07.758Z,95.51
2022-12-16T04:54:54.045Z,96.11
2022-12-16T04:59:29.898Z,95.59
2022-12-16T05:04:05.485Z,95.37
2022-12-16T05:08:41.500Z,96.20
2022-12-16T05:13:16.950Z,96.03
2022-12-16T05:17:54.395Z,95.92
2022-12-16T05:22:29.881Z,95.50
2022-12-16T05:27:05.498Z,96.02
2022-12-16T05:31:41.327Z,95.79
2022-12-16T05:36:17.348Z,95.74
2022-12-16T05:40:52.954Z,95.57
2022-12-16T05:45:28.946Z,95.63
2022-12-16T05:50:04.873Z,95.35
2022-12-16T05:54:40.552Z,95.23
2022-12-16T05:59:16.094Z,95.77
2022-12-16T06:03:52.176Z,95.12
2022-12-16T06:08:27.986Z,95.21
2022-12-16T06:13:07.165Z,95.07
2022-12-16T06:17:42.942Z,95.95
2022-12-16T06:22:19.854Z,95.86
2022-12-16T06:26:55.527Z,95.67
2022-12-16T06:31:31.394Z,95.09
2022-12-16T06:36:07.447Z,95.83
2022-12-16T06:40:42.789Z,95.84
2022-12-16T06:45:18.763Z,94.70
2022-12-16T06:49:54.158Z,95.58
2022-12-16T06:54:30.301Z,95.14
2022-12-16T06:59:05.918Z,95.80
2022-12-16T07:03:41.971Z,95.36
2022-12-16T07:08:18.029Z,94.21
2022-12-16T07:12:53.754Z,94.90
2022-12-16T07:17:29.465Z,94.70
2022-12-16T07:22:05.113Z,94.72
2022-12-16T07:26:40.917Z,95.04
2022-12-16T07:31:16.547Z,95.20
2022-12-16T07:35:52.238Z,94.22
2022-12-16T07:40:42.507Z,94.22
2022-12-16T07:45:17.844Z,94.49
2022-12-16T07:49:53.601Z,94.55
2022-12-16T07:54:34.639Z,94.81
2022-12-16T07:59:10.367Z,94.27
2022-12-16T08:03:46.044Z,94.45
2022-12-16T08:08:22.107Z,94.14
2022-12-16T08:12:57.776Z,94.35
2022-12-16T08:17:33.615Z,94.21
2022-12-16T08:22:09.107Z,93.99
2022-12-16T08:26:46.060Z,93.40
2022-12-16T08:31:21.568Z,94.89
2022-12-16T08:35:57.555Z,92.96
2022-12-16T08:40:35.668Z,94.27
2022-12-16T08:45:12.211Z,94.23
2022-12-16T08:49:48.067Z,93.88
2022-12-16T08:54:23.871Z,93.12
2022-12-16T08:58:59.704Z,93.73
2022-12-16T09:03:49.315Z,95.01
2022-12-16T09:08:24.785Z,93.53
2022-12-16T09:13:00.512Z,94.29
2022-12-16T09:17:36.256Z,93.79
2022-12-16T09:22:12.217Z,93.63
2022-12-16T09:26:49.024Z,93.90
2022-12-16T09:31:25.056Z,93.55
2022-12-16T09:36:00.713Z,93.98
2022-12-16T09:40:37.336Z,93.03
2022-12-16T09:45:36.160Z,93.66
2022-12-16T09:50:13.848Z,93.96
2022-12-16T09:54:55.766Z,92.05
2022-12-16T09:59:36.519Z,91.67
2022-12-16T10:04:12.068Z,90.76
2022-12-16T10:09:05.796Z,91.83
2022-12-16T10:14:19.461Z,93.36
2022-12-16T10:19:29.471Z,93.21
2022-12-16T10:24:37.690Z,93.79
2022-12-16T10:29:45.299Z,92.05
2022-12-16T10:34:29.300Z,91.91
2022-12-16T10:39:14.341Z,91.97
2022-12-16T10:43:59.615Z,90.96
2022-12-16T10:48:51.419Z,91.79
2022-12-16T10:53:49.123Z,90.48
2022-12-16T10:58:44.625Z,89.95
2022-12-16T11:03:42.252Z,91.73
2022-12-16T11:08:17.978Z,91.15
2022-12-16T11:12:53.705Z,90.44
2022-12-16T11:17:45.498Z,91.50
2022-12-16T11:22:42.188Z,90.15
2022-12-16T11:27:43.678Z,90.85
2022-12-16T11:32:42.493Z,89.88
2022-12-16T11:37:21.273Z,89.20
2022-12-16T11:42:07.905Z,91.23
2022-12-16T11:46:47.056Z,91.02
2022-12-16T11:51:24.480Z,92.00
2022-12-16T11:56:11.256Z,90.88
2022-12-16T12:00:49.107Z,90.65
2022-12-16T12:05:24.986Z,90.18
2022-12-16T12:10:11.893Z,92.20
2022-12-16T12:15:12.308Z,91.40
2022-12-16T12:20:07.491Z,91.31
2022-12-16T12:25:01.654Z,90.01
2022-12-16T12:30:17.823Z,92.34
2022-12-16T12:35:00.742Z,91.27
2022-12-16T12:39:43.857Z,93.66
2022-12-16T12:44:49.037Z,93.13
2022-12-16T12:50:07.071Z,92.88
2022-12-16T12:54:58.258Z,92.77
2022-12-16T13:00:19.034Z,92.76
2022-12-16T13:04:55.257Z,92.39
2022-12-16T13:09:52.393Z,94.46
2022-12-16T13:14:49.688Z,94.34
2022-12-16T13:19:51.290Z,94.27
2022-12-16T13:24:42.328Z,93.47
2022-12-16T13:29:51.696Z,94.11
2022-12-16T13:34:46.453Z,94.88
2022-12-16T13:39:44.292Z,93.97
2022-12-16T13:44:19.837Z,95.64
2022-12-16T13:48:59.708Z,95.87
2022-12-16T13:53:38.720Z,94.18
2022-12-16T13:58:23.151Z,95.17
2022-12-16T14:03:01.599Z,95.02
2022-12-16T14:07:41.067Z,94.64
2022-12-16T14:12:23.922Z,94.72
2022-12-16T14:17:07.630Z,95.55
2022-12-16T14:21:53.356Z,96.59
2022-12-16T14:26:33.149Z,96.46
2022-12-16T14:31:20.827Z,96.67
2022-12-16T14:36:08.505Z,96.33
2022-12-16T14:40:51.948Z,96.89
2022-12-16T14:45:52.143Z,97.15
2022-12-16T14:50:46.279Z,97.13
2022-12-16T14:55:50.965Z,96.54
2022-12-16T15:00:26.572Z,96.99
2022-12-16T15:05:03.180Z,94.50
2022-12-16T15:10:03.999Z,95.38
2022-12-16T15:14:48.043Z,96.12
2022-12-16T15:19:23.970Z,95.97
2022-12-16T15:24:03.564Z,96.56
2022-12-16T15:28:59.391Z,95.84
2022-12-16T15:33:38.433Z,95.21
2022-12-16T15:38:21.956Z,94.27
2022-12-16T15:42:57.414Z,94.92
2022-12-16T15:47:48.006Z,95.67
2022-12-16T16:06:04.162Z,92.81
2022-12-16T16:10:44.254Z,95.04
2022-12-16T16:15:20.783Z,94.25
2022-12-16T16:20:10.296Z,94.51
2022-12-16T16:24:45.917Z,94.77
2022-12-16T16:29:22.491Z,94.48
2022-12-16T16:33:58.603Z,94.70
2022-12-16T16:38:34.326Z,94.15
2022-12-16T16:43:14.613Z,93.62
2022-12-16T16:47:50.716Z,95.48
2022-12-16T16:52:34.570Z,93.68
2022-12-16T16:57:10.890Z,95.10
2022-12-16T17:01:46.669Z,95.28
2022-12-16T17:06:22.879Z,95.35
2022-12-16T17:10:58.726Z,95.05
2022-12-16T17:15:41.293Z,94.61
2022-12-16T17:20:16.819Z,94.05
2022-12-16T17:24:54.311Z,95.61
2022-12-16T17:29:57.086Z,95.48
2022-12-16T17:34:33.029Z,93.92
2022-12-16T17:39:09.609Z,94.52
2022-12-16T17:43:45.253Z,95.74
2022-12-16T17:48:20.954Z,94.69
2022-12-16T17:52:56.798Z,94.61
2022-12-16T17:57:33.721Z,94.14
2022-12-16T18:02:09.297Z,93.35
2022-12-16T18:06:45.563Z,93.80
2022-12-16T18:11:20.937Z,93.66
2022-12-16T18:15:57.010Z,95.10
2022-12-16T18:20:32.834Z,94.88
2022-12-16T18:25:08.583Z,95.30
2022-12-16T18:29:44.752Z,96.23
2022-12-16T18:34:34.045Z,95.44
2022-12-16T18:39:09.433Z,95.01
2022-12-16T18:43:45.297Z,95.91
2022-12-16T18:48:20.673Z,95.84
2022-12-16T18:52:56.750Z,95.33
2022-12-16T18:57:37.888Z,94.92
2022-12-16T19:02:16.437Z,94.65
2022-12-16T19:06:51.963Z,95.25
2022-12-16T19:11:27.837Z,95.59
2022-12-16T19:16:15.531Z,94.62
2022-12-16T19:20:51.304Z,95.10
2022-12-16T19:25:27.679Z,95.92
2022-12-16T19:30:03.639Z,95.54
2022-12-16T19:34:39.527Z,95.59
2022-12-16T19:39:15.084Z,95.33
2022-12-16T19:43:51.214Z,95.17
2022-12-16T19:48:28.965Z,95.00
2022-12-16T19:53:04.525Z,94.24
2022-12-16T19:57:41.786Z,94.34
2022-12-16T20:02:17.326Z,95.60
2022-12-16T20:06:56.029Z,95.73
2022-12-16T20:11:54.613Z,95.70
2022-12-16T20:16:31.689Z,95.04
2022-12-16T20:21:07.676Z,95.90
2022-12-16T20:25:44.146Z,96.36
2022-12-16T20:30:19.627Z,96.02
2022-12-16T20:35:09.234Z,94.81
2022-12-16T20:39:51.204Z,94.40
2022-12-16T20:44:32.587Z,94.34
2022-12-16T20:49:08.033Z,95.74
2022-12-16T20:53:44.241Z,95.65
2022-12-16T20:58:19.803Z,95.51
2022-12-16T21:07:51.200Z,95.72
2022-12-16T21:12:27.803Z,95.28
2022-12-16T21:17:03.426Z,95.22
2022-12-16T21:21:39.030Z,96.00
2022-12-16T21:26:18.382Z,95.76
2022-12-16T21:30:54.324Z,95.00
2022-12-16T21:35:32.211Z,94.79
2022-12-16T21:40:07.973Z,95.00
2022-12-16T21:44:43.682Z,94.70
2022-12-16T21:49:19.507Z,95.07
2022-12-16T21:53:55.134Z,95.81
2022-12-16T21:58:33.925Z,95.76
2022-12-16T22:03:09.809Z,95.58
2022-12-16T22:07:47.199Z,94.64
2022-12-16T22:12:23.050Z,94.85
2022-12-16T22:16:58.863Z,95.27
2022-12-16T22:21:39.005Z,94.26
2022-12-16T22:26:20.358Z,94.72
2022-12-16T22:30:56.220Z,95.15
2022-12-16T22:35:32.404Z,95.18
2022-12-16T22:40:07.931Z,94.88
2022-12-16T22:44:43.773Z,95.01
2022-12-16T22:49:19.814Z,95.30
2022-12-16T23:19:15.604Z,95.68
2022-12-16T23:23:51.462Z,94.78
2022-12-16T23:28:28.208Z,94.46
2022-12-16T23:32:31.233Z,95.70
2022-12-16T23:33:03.570Z,95.29
2022-12-16T23:37:39.296Z,95.49
2022-12-16T23:42:14.896Z,94.40
2022-12-16T23:46:50.522Z,94.95
2022-12-16T23:51:26.255Z,95.73
2022-12-16T23:56:01.693Z,95.17
